Time;durP1;ratioP1;P1;durP2;ratioP2;P2;SDS_P1;SDS_P2;PMS_P1;PMS_P2;Temp;Humidity;BMP_temperature;BMP_pressure;BME280_temperature;BME280_humidity;BME280_pressure;Samples;Min_cycle;Max_cycle;Signal;HPM_P1;HPM_P2
2022/01/11 00:00:58;;;;;;;25.07;10.27;;;-2.30;99.90;;;;;;4389425;28;660917;-73
2022/01/11 00:03:47;;;;;;;25.33;9.53;;;-2.30;99.90;;;;;;4382284;28;662107;-73
2022/01/11 00:06:40;;;;;;;24.47;9.93;;;-2.30;99.90;;;;;;4376785;28;660266;-74
2022/01/11 00:09:34;;;;;;;26.50;11.30;;;-2.30;99.90;;;;;;4356733;28;659862;-73
2022/01/11 00:12:22;;;;;;;28.63;11.07;;;-2.30;99.90;;;;;;4362264;28;661151;-74
2022/01/11 00:15:10;;;;;;;27.50;10.90;;;-2.30;99.90;;;;;;4403236;28;660997;-74
2022/01/11 00:17:58;;;;;;;27.00;10.23;;;-2.30;99.90;;;;;;4380123;28;662008;-74
2022/01/11 00:20:47;;;;;;;22.40;10.32;;;-2.30;99.90;;;;;;4411115;28;661645;-74
2022/01/11 00:26:39;;;;;;;25.07;10.77;;;-2.30;99.90;;;;;;4336407;28;661762;-73
2022/01/11 00:29:30;;;;;;;21.13;9.90;;;-2.30;99.90;;;;;;4390358;28;660647;-73
2022/01/11 00:32:27;;;;;;;27.37;10.60;;;-2.30;99.90;;;;;;4361794;28;660216;-73
2022/01/11 00:35:18;;;;;;;25.53;10.63;;;-2.30;99.90;;;;;;4381078;28;661585;-74
2022/01/11 00:38:07;;;;;;;24.60;10.37;;;-2.30;99.90;;;;;;4379232;28;661727;-73
2022/01/11 00:40:56;;;;;;;29.60;11.07;;;-2.30;99.90;;;;;;4379766;28;661719;-73
2022/01/11 00:43:43;;;;;;;24.07;11.00;;;-2.30;99.90;;;;;;4377457;28;661435;-72
2022/01/11 00:46:32;;;;;;;23.70;10.43;;;-2.30;99.90;;;;;;4375788;28;661008;-74
2022/01/11 00:49:20;;;;;;;32.10;11.63;;;-2.30;99.90;;;;;;4358294;28;661840;-73
2022/01/11 00:52:08;;;;;;;26.40;11.33;;;-2.30;99.90;;;;;;4362052;28;661389;-73
2022/01/11 00:54:57;;;;;;;25.90;10.37;;;-2.30;99.90;;;;;;4400551;28;660906;-74
2022/01/11 00:57:44;;;;;;;24.70;10.70;;;-2.30;99.90;;;;;;4374579;28;661436;-73
2022/01/11 01:00:32;;;;;;;24.73;11.00;;;-2.20;99.90;;;;;;4361014;28;661104;-73
2022/01/11 01:03:20;;;;;;;24.10;10.80;;;-2.20;99.90;;;;;;4351614;28;661207;-73
2022/01/11 01:06:09;;;;;;;25.90;10.77;;;-2.20;99.90;;;;;;4372734;28;660596;-74
2022/01/11 01:08:57;;;;;;;26.77;11.63;;;-2.20;99.90;;;;;;4392302;28;661082;-73
2022/01/11 01:11:48;;;;;;;31.20;12.43;;;-2.20;99.90;;;;;;4357003;28;660845;-73
2022/01/11 01:14:36;;;;;;;26.27;12.30;;;-2.20;99.90;;;;;;4377759;28;661222;-72
2022/01/11 01:17:23;;;;;;;25.80;11.80;;;-2.20;99.90;;;;;;4374873;28;662604;-74
2022/01/11 01:20:12;;;;;;;36.10;12.57;;;-2.20;99.90;;;;;;4384734;28;660880;-73
2022/01/11 01:23:00;;;;;;;28.30;12.43;;;-2.20;99.90;;;;;;4375095;28;661634;-73
2022/01/11 01:25:47;;;;;;;29.63;12.63;;;-2.20;99.90;;;;;;4374936;28;661467;-73
2022/01/11 01:28:36;;;;;;;31.97;13.07;;;-2.20;99.90;;;;;;4385787;28;661047;-74
2022/01/11 01:31:24;;;;;;;25.30;11.80;;;-2.20;99.90;;;;;;4369776;28;662305;-73
2022/01/11 01:34:11;;;;;;;31.03;12.47;;;-2.20;99.90;;;;;;4395964;28;661550;-73
2022/01/11 01:37:01;;;;;;;24.47;11.37;;;-2.20;99.90;;;;;;4362846;28;661918;-74
2022/01/11 01:39:50;;;;;;;27.63;11.37;;;-2.20;99.90;;;;;;4358122;28;661482;-72
2022/01/11 01:42:38;;;;;;;25.87;11.50;;;-2.20;99.90;;;;;;4363330;28;660911;-74
2022/01/11 01:45:27;;;;;;;25.47;11.33;;;-2.20;99.90;;;;;;4388842;28;660764;-73
2022/01/11 01:48:15;;;;;;;29.17;11.90;;;-2.20;99.90;;;;;;4373396;28;661469;-73
2022/01/11 01:51:03;;;;;;;23.53;11.10;;;-2.20;99.90;;;;;;4372048;28;660910;-73
2022/01/11 01:53:52;;;;;;;25.10;10.70;;;-2.20;99.90;;;;;;4393184;28;661621;-74
2022/01/11 01:56:41;;;;;;;22.00;9.68;;;-2.20;99.90;;;;;;4349652;28;661202;-74
2022/01/11 01:59:29;;;;;;;27.17;11.30;;;-2.20;99.90;;;;;;4367728;28;660185;-74
2022/01/11 02:02:26;;;;;;;25.93;11.00;;;-2.20;99.90;;;;;;4370153;28;660955;-73
2022/01/11 02:05:14;;;;;;;28.47;11.50;;;-2.20;99.90;;;;;;4325629;28;661779;-73
2022/01/11 02:08:02;;;;;;;24.08;10.65;;;-2.20;99.90;;;;;;4397523;28;660470;-74
2022/01/11 02:10:49;;;;;;;27.43;11.03;;;-2.20;99.90;;;;;;4375357;28;661717;-73
2022/01/11 02:13:37;;;;;;;28.50;10.90;;;-2.30;99.90;;;;;;4377658;28;661148;-74
2022/01/11 02:16:25;;;;;;;25.57;10.00;;;-2.20;99.90;;;;;;4401590;28;661393;-73
2022/01/11 02:19:15;;;;;;;27.53;10.87;;;-2.30;99.90;;;;;;4358339;28;660906;-74
2022/01/11 02:22:05;;;;;;;25.53;10.50;;;-2.20;99.90;;;;;;4370239;28;660358;-73
2022/01/11 02:24:53;;;;;;;23.63;10.53;;;-2.20;99.90;;;;;;4379978;28;661192;-73
2022/01/11 02:27:41;;;;;;;22.97;9.80;;;-2.20;99.90;;;;;;4402005;28;660644;-73
2022/01/11 02:30:32;;;;;;;22.03;9.73;;;-2.20;99.90;;;;;;4382282;28;660174;-73
2022/01/11 02:33:33;;;;;;;21.93;9.30;;;-2.20;99.90;;;;;;4381855;28;660814;-74
2022/01/11 02:36:22;;;;;;;21.90;9.90;;;-2.20;99.90;;;;;;4371893;28;660075;-74
2022/01/11 02:39:12;;;;;;;21.87;8.80;;;-2.30;99.90;;;;;;4360892;28;660209;-73
2022/01/11 02:42:02;;;;;;;21.07;8.53;;;-2.30;99.90;;;;;;4375727;28;660377;-73
2022/01/11 02:44:49;;;;;;;20.38;9.32;;;-2.30;99.90;;;;;;4372155;28;660448;-74
2022/01/11 02:47:37;;;;;;;22.33;8.90;;;-2.30;99.90;;;;;;4385486;28;660426;-74
2022/01/11 02:50:25;;;;;;;21.10;9.07;;;-2.30;99.90;;;;;;4399676;28;660524;-73
2022/01/11 02:53:14;;;;;;;20.87;9.03;;;-2.40;99.90;;;;;;4375410;28;659757;-74
2022/01/11 02:56:04;;;;;;;26.13;9.27;;;-2.30;99.90;;;;;;4379328;28;659894;-74
2022/01/11 02:58:51;;;;;;;19.10;8.25;;;-2.40;99.90;;;;;;4404652;28;660786;-73
2022/01/11 03:01:39;;;;;;;21.70;8.80;;;-2.40;99.90;;;;;;4379475;28;660546;-73
2022/01/11 03:04:31;;;;;;;18.67;8.40;;;-2.40;99.90;;;;;;4400642;28;659422;-74
2022/01/11 03:07:20;;;;;;;19.57;8.00;;;-2.40;99.90;;;;;;4373007;28;659913;-73
2022/01/11 03:10:16;;;;;;;18.20;7.70;;;-2.40;99.90;;;;;;4378110;28;659658;-73
2022/01/11 03:13:06;;;;;;;19.63;7.97;;;-2.40;99.90;;;;;;4367045;28;660072;-73
2022/01/11 03:15:54;;;;;;;20.63;8.27;;;-2.40;99.90;;;;;;4364751;28;660310;-74
2022/01/11 03:18:42;;;;;;;17.03;8.07;;;-2.40;99.90;;;;;;4376011;28;660885;-72
2022/01/11 03:21:31;;;;;;;24.97;9.50;;;-2.40;99.90;;;;;;4389065;28;660660;-72
2022/01/11 03:24:18;;;;;;;19.73;8.15;;;-2.40;99.90;;;;;;4381439;28;659755;-74
2022/01/11 03:27:07;;;;;;;20.00;8.50;;;-2.40;99.90;;;;;;4387832;28;660002;-74
2022/01/11 03:29:56;;;;;;;19.23;8.43;;;-2.50;99.90;;;;;;4374313;28;660212;-74
2022/01/11 03:32:44;;;;;;;22.87;8.30;;;-2.50;99.90;;;;;;4378931;28;661199;-73
2022/01/11 03:35:32;;;;;;;22.77;8.80;;;-2.60;99.90;;;;;;4381595;28;660201;-75
2022/01/11 03:38:22;;;;;;;22.13;9.33;;;-2.50;99.90;;;;;;4361840;28;659698;-73
2022/01/11 03:41:10;;;;;;;18.57;8.23;;;-2.50;99.90;;;;;;4364988;28;659868;-73
2022/01/11 03:43:58;;;;;;;21.27;8.10;;;-2.50;99.90;;;;;;4385976;28;660653;-73
2022/01/11 03:46:47;;;;;;;18.47;8.10;;;-2.50;99.90;;;;;;4401900;28;659708;-73
2022/01/11 03:49:36;;;;;;;21.88;8.63;;;-2.50;99.90;;;;;;4382950;28;660191;-73
2022/01/11 03:52:24;;;;;;;17.77;7.97;;;-2.50;99.90;;;;;;4355171;28;659844;-75
2022/01/11 03:55:20;;;;;;;21.27;8.07;;;-2.60;99.90;;;;;;4389239;28;659575;-74
2022/01/11 03:58:08;;;;;;;19.30;8.47;;;-2.60;99.90;;;;;;4380488;28;659994;-72
2022/01/11 04:00:56;;;;;;;16.43;8.27;;;-2.70;99.90;;;;;;4408195;28;660862;-75
2022/01/11 04:03:45;;;;;;;18.93;8.20;;;-2.70;99.90;;;;;;4379921;28;660028;-73
2022/01/11 04:06:33;;;;;;;18.00;7.60;;;-2.70;99.90;;;;;;4378827;28;659912;-73
2022/01/11 04:09:20;;;;;;;22.03;8.40;;;-2.80;99.90;;;;;;4380076;28;661407;-73
2022/01/11 04:12:10;;;;;;;16.27;8.13;;;-2.80;99.90;;;;;;4373395;28;659757;-73
2022/01/11 04:14:58;;;;;;;21.93;9.20;;;-2.90;99.90;;;;;;4389247;28;660514;-74
2022/01/11 04:17:45;;;;;;;19.70;9.13;;;-2.90;99.90;;;;;;4396839;28;660478;-73
2022/01/11 04:20:34;;;;;;;19.57;8.70;;;-2.90;99.90;;;;;;4375637;28;659681;-73
2022/01/11 04:23:26;;;;;;;22.17;8.50;;;-2.90;99.90;;;;;;4397546;28;659933;-73
2022/01/11 04:26:13;;;;;;;19.50;7.70;;;-3.00;99.90;;;;;;4371565;28;659833;-73
2022/01/11 04:29:03;;;;;;;18.37;7.50;;;-3.00;99.90;;;;;;4413599;28;659397;-73
2022/01/11 04:31:50;;;;;;;17.42;7.78;;;-3.00;99.90;;;;;;4338761;28;660759;-73
2022/01/11 04:34:39;;;;;;;18.73;7.80;;;-3.10;99.90;;;;;;4347388;28;659921;-73
2022/01/11 04:37:29;;;;;;;17.90;7.80;;;-3.10;99.90;;;;;;4386464;28;660052;-73
2022/01/11 04:40:17;;;;;;;16.50;7.83;;;-3.10;99.90;;;;;;4395524;28;660429;-73
2022/01/11 04:43:04;;;;;;;16.03;7.10;;;-3.00;99.90;;;;;;4385518;28;660447;-72
2022/01/11 04:45:52;;;;;;;16.03;7.37;;;-3.00;99.90;;;;;;4385248;28;660439;-72
2022/01/11 04:48:40;;;;;;;19.63;8.30;;;-3.00;99.90;;;;;;4387945;28;660449;-73
2022/01/11 04:51:27;;;;;;;17.73;8.07;;;-3.00;99.90;;;;;;4383932;28;659986;-74
2022/01/11 04:54:16;;;;;;;17.70;8.33;;;-3.00;99.90;;;;;;4389886;28;660136;-73
2022/01/11 04:57:05;;;;;;;19.43;7.50;;;-3.00;99.90;;;;;;4366763;28;661039;-72
2022/01/11 04:59:53;;;;;;;14.03;6.10;;;-3.00;99.90;;;;;;4386165;28;660641;-72
2022/01/11 05:02:40;;;;;;;16.67;6.73;;;-3.00;99.90;;;;;;4405270;28;660412;-72
2022/01/11 05:05:29;;;;;;;15.67;6.57;;;-3.00;99.90;;;;;;4368317;28;659646;-72
2022/01/11 05:08:17;;;;;;;12.60;6.40;;;-3.00;99.90;;;;;;4391635;28;660578;-72
2022/01/11 05:11:06;;;;;;;13.23;6.30;;;-3.00;99.90;;;;;;4385947;28;660385;-72
2022/01/11 05:13:54;;;;;;;13.47;6.13;;;-2.90;99.90;;;;;;4373359;28;659649;-74
2022/01/11 05:16:42;;;;;;;13.30;6.75;;;-3.00;99.90;;;;;;4376106;28;660376;-72
2022/01/11 05:19:30;;;;;;;17.00;7.10;;;-2.90;99.90;;;;;;4390405;28;660200;-72
2022/01/11 05:22:18;;;;;;;15.63;7.20;;;-2.90;99.90;;;;;;4372108;28;660801;-71
2022/01/11 05:25:06;;;;;;;17.67;7.27;;;-2.90;99.90;;;;;;4384439;28;660972;-72
2022/01/11 05:27:55;;;;;;;14.73;6.93;;;-2.90;99.90;;;;;;4370929;28;660427;-71
2022/01/11 05:30:43;;;;;;;19.77;8.23;;;-2.90;99.90;;;;;;4372891;28;659607;-72
2022/01/11 05:33:30;;;;;;;21.70;8.50;;;-2.80;99.90;;;;;;4394090;28;659637;-72
2022/01/11 05:36:18;;;;;;;16.50;7.73;;;-2.80;99.90;;;;;;4343617;28;659584;-72
2022/01/11 05:39:06;;;;;;;18.93;8.07;;;-2.80;99.90;;;;;;4365333;28;661317;-71
2022/01/11 05:41:53;;;;;;;17.23;7.95;;;-2.80;99.90;;;;;;4365268;28;659724;-72
2022/01/11 05:44:43;;;;;;;19.37;8.43;;;-2.80;99.90;;;;;;4386797;28;659661;-74
2022/01/11 05:47:31;;;;;;;21.60;9.00;;;-2.80;99.90;;;;;;4354110;28;660504;-72
2022/01/11 05:50:20;;;;;;;20.53;8.40;;;-2.80;99.90;;;;;;4372383;28;660345;-75
2022/01/11 05:53:07;;;;;;;21.60;9.23;;;-2.80;99.90;;;;;;4381891;28;659878;-73
2022/01/11 05:55:57;;;;;;;20.70;9.17;;;-2.80;99.90;;;;;;4397590;28;661269;-73
2022/01/11 05:58:46;;;;;;;28.40;11.00;;;-2.80;99.90;;;;;;4377776;28;660902;-73
2022/01/11 06:01:36;;;;;;;20.90;8.13;;;-2.70;99.90;;;;;;4378342;28;660801;-74
2022/01/11 06:04:26;;;;;;;27.42;8.65;;;-2.70;99.90;;;;;;4369175;28;659239;-74
2022/01/11 06:07:14;;;;;;;17.77;7.73;;;-2.80;99.90;;;;;;4356652;28;660299;-73
2022/01/11 06:10:02;;;;;;;15.50;7.83;;;-2.80;99.90;;;;;;4397654;28;660768;-73
2022/01/11 06:12:50;;;;;;;17.17;7.27;;;-2.80;99.90;;;;;;4356839;28;660412;-75
2022/01/11 06:15:38;;;;;;;15.63;6.97;;;-2.80;99.90;;;;;;4335977;28;660019;-75
2022/01/11 06:18:26;;;;;;;19.87;7.57;;;-2.80;99.90;;;;;;4387263;28;660518;-75
2022/01/11 06:21:14;;;;;;;20.33;8.03;;;-2.80;99.90;;;;;;4363848;28;661841;-75
2022/01/11 06:24:02;;;;;;;16.60;8.00;;;-2.80;99.90;;;;;;4376270;28;660060;-75
2022/01/11 06:26:49;;;;;;;16.70;8.27;;;-2.80;99.90;;;;;;4387322;28;660938;-75
2022/01/11 06:29:37;;;;;;;26.50;9.37;;;-2.80;99.90;;;;;;4396739;28;659901;-75
2022/01/11 06:32:25;;;;;;;19.40;8.90;;;-2.80;99.90;;;;;;4383684;28;662728;-76
2022/01/11 06:35:14;;;;;;;15.53;7.93;;;-2.80;99.90;;;;;;4362801;28;659875;-74
2022/01/11 06:38:02;;;;;;;20.40;8.40;;;-2.80;99.90;;;;;;4386662;28;659996;-74
2022/01/11 06:41:02;;;;;;;19.90;8.70;;;-2.90;99.90;;;;;;4392992;28;660528;-76
2022/01/11 06:44:17;;;;;;;19.30;8.00;;;-2.90;99.90;;;;;;4350349;28;659877;-74
2022/01/11 06:47:08;;;;;;;19.53;8.53;;;-2.90;99.90;;;;;;4360973;28;660004;-75
2022/01/11 06:49:56;;;;;;;17.93;8.37;;;-2.90;99.90;;;;;;4379180;28;660144;-74
2022/01/11 06:52:44;;;;;;;21.07;9.23;;;-2.90;99.90;;;;;;4392552;28;659909;-76
2022/01/11 06:55:33;;;;;;;21.65;9.10;;;-2.90;99.90;;;;;;4394897;28;659402;-74
2022/01/11 06:58:20;;;;;;;23.87;9.80;;;-2.90;99.90;;;;;;4411023;28;661499;-76
2022/01/11 07:01:08;;;;;;;20.87;9.17;;;-3.00;99.90;;;;;;4392455;28;659525;-74
2022/01/11 07:03:55;;;;;;;23.07;10.23;;;-3.10;99.90;;;;;;4408504;28;659459;-73
2022/01/11 07:06:43;;;;;;;23.63;10.13;;;-3.10;99.90;;;;;;4379717;28;661160;-74
2022/01/11 07:09:31;;;;;;;21.47;10.03;;;-3.10;99.90;;;;;;4406012;28;661340;-74
2022/01/11 07:12:19;;;;;;;22.70;10.10;;;-3.10;99.90;;;;;;4390991;28;661854;-73
2022/01/11 07:15:08;;;;;;;21.60;9.47;;;-3.20;99.90;;;;;;4405702;28;660749;-75
2022/01/11 07:17:55;;;;;;;26.93;10.70;;;-3.20;99.90;;;;;;4387718;28;660409;-75
2022/01/11 07:20:43;;;;;;;23.45;9.68;;;-3.20;99.90;;;;;;4388886;28;660574;-74
2022/01/11 07:23:31;;;;;;;22.17;9.70;;;-3.20;99.90;;;;;;4396959;28;659643;-76
2022/01/11 07:26:20;;;;;;;21.70;9.57;;;-3.20;99.90;;;;;;4388623;28;659304;-74
2022/01/11 07:29:07;;;;;;;22.30;10.00;;;-3.30;99.90;;;;;;4387540;28;659496;-76
2022/01/11 07:31:55;;;;;;;26.17;10.30;;;-3.40;99.90;;;;;;4406022;28;663041;-76
2022/01/11 07:34:42;;;;;;;24.77;11.00;;;-3.40;99.90;;;;;;4386309;28;660581;-75
2022/01/11 07:37:30;;;;;;;24.53;10.37;;;-3.40;99.90;;;;;;4399743;28;660505;-74
2022/01/11 07:40:18;;;;;;;25.97;10.60;;;-3.50;99.90;;;;;;4344510;28;660798;-74
2022/01/11 07:43:07;;;;;;;43.80;14.97;;;-3.40;99.90;;;;;;4393413;28;660626;-74
2022/01/11 07:45:54;;;;;;;140.43;36.93;;;-3.40;99.90;;;;;;4357919;28;661223;-74
2022/01/11 07:48:42;;;;;;;79.75;24.58;;;-3.40;99.90;;;;;;4388373;28;662542;-75
2022/01/11 07:51:30;;;;;;;47.40;16.80;;;-3.40;99.90;;;;;;4404742;28;662294;-74
2022/01/11 07:54:18;;;;;;;31.07;13.57;;;-3.50;99.90;;;;;;4388149;28;661135;-74
2022/01/11 07:57:06;;;;;;;31.37;11.47;;;-3.40;99.90;;;;;;4407989;28;660724;-74
2022/01/11 07:59:55;;;;;;;26.30;11.10;;;-3.40;99.90;;;;;;4383449;28;661099;-74
2022/01/11 08:02:42;;;;;;;52.40;14.85;;;-3.40;99.90;;;;;;4372991;28;660704;-75
2022/01/11 08:05:30;;;;;;;47.70;15.10;;;-3.40;99.90;;;;;;4409583;28;660985;-75
2022/01/11 08:08:18;;;;;;;40.80;15.27;;;-3.40;99.90;;;;;;4378669;28;661067;-74
2022/01/11 08:11:06;;;;;;;50.23;16.10;;;-3.40;99.90;;;;;;4409192;28;661504;-76
2022/01/11 08:13:53;;;;;;;39.70;14.93;;;-3.40;99.90;;;;;;4374633;28;661069;-76
2022/01/11 08:16:42;;;;;;;36.13;13.77;;;-3.30;99.90;;;;;;4397106;28;660768;-76
2022/01/11 08:19:34;;;;;;;35.43;14.30;;;-3.30;99.90;;;;;;4374701;28;660836;-74
2022/01/11 08:22:22;;;;;;;36.00;15.93;;;-3.20;99.90;;;;;;4380852;28;661105;-74
2022/01/11 08:25:11;;;;;;;41.90;15.70;;;-3.00;99.90;;;;;;4407583;28;661445;-75
2022/01/11 08:28:00;;;;;;;35.00;13.43;;;-2.80;99.90;;;;;;4384327;28;661286;-75
2022/01/11 08:30:47;;;;;;;31.13;12.97;;;-2.60;99.90;;;;;;4371477;28;661324;-74
2022/01/11 08:33:38;;;;;;;32.77;13.53;;;-2.50;99.90;;;;;;4393033;28;661085;-75
2022/01/11 08:36:25;;;;;;;33.57;14.03;;;-2.30;99.90;;;;;;4367783;28;662124;-74
2022/01/11 08:39:15;;;;;;;35.47;14.63;;;-2.00;99.90;;;;;;4361220;28;661311;-74
2022/01/11 08:42:03;;;;;;;35.83;14.27;;;-1.60;99.90;;;;;;4321585;28;660601;-77
2022/01/11 08:44:51;;;;;;;32.37;14.23;;;-1.20;99.90;;;;;;4383569;28;662169;-75
2022/01/11 08:47:39;;;;;;;35.27;14.57;;;-0.60;99.90;;;;;;4351572;28;661865;-74
2022/01/11 08:50:30;;;;;;;34.47;14.17;;;-0.30;99.90;;;;;;4363110;28;660923;-74
2022/01/11 08:53:18;;;;;;;31.93;14.17;;;0.20;99.90;;;;;;4358289;28;660564;-75
2022/01/11 08:56:06;;;;;;;30.65;14.07;;;0.50;99.90;;;;;;4387201;28;660411;-74
2022/01/11 08:58:53;;;;;;;31.33;14.25;;;0.90;99.90;;;;;;4365719;28;659766;-75
2022/01/11 09:01:41;;;;;;;36.37;15.33;;;1.40;99.90;;;;;;4381024;28;659796;-75
2022/01/11 09:04:29;;;;;;;51.40;20.23;;;2.10;99.80;;;;;;4349305;28;659747;-76
2022/01/11 09:07:19;;;;;;;31.70;15.03;;;2.70;92.90;;;;;;4391189;28;659584;-76
2022/01/11 09:10:07;;;;;;;29.07;14.43;;;3.10;85.50;;;;;;4389940;28;659412;-76
2022/01/11 09:12:54;;;;;;;28.03;13.53;;;3.60;80.60;;;;;;4370313;28;660488;-76
2022/01/11 09:15:42;;;;;;;41.40;18.15;;;4.00;74.80;;;;;;4370856;28;660137;-77
2022/01/11 09:18:30;;;;;;;34.73;16.23;;;4.60;73.40;;;;;;4383466;28;660612;-76
2022/01/11 09:21:20;;;;;;;34.13;15.47;;;5.30;68.30;;;;;;4377654;28;659890;-77
2022/01/11 09:24:11;;;;;;;31.37;14.90;;;5.90;63.90;;;;;;4370431;28;659738;-78
2022/01/11 09:26:59;;;;;;;31.93;15.70;;;6.20;59.90;;;;;;4375241;28;660405;-77
2022/01/11 09:29:47;;;;;;;25.93;13.70;;;6.80;59.90;;;;;;4375904;28;659615;-77
2022/01/11 09:32:37;;;;;;;24.20;12.53;;;7.40;57.40;;;;;;4396629;28;660382;-77
2022/01/11 09:35:25;;;;;;;21.37;11.70;;;7.50;55.90;;;;;;4367805;28;660316;-76
2022/01/11 09:38:12;;;;;;;19.27;11.43;;;7.70;54.60;;;;;;4363748;28;659682;-76
2022/01/11 09:41:02;;;;;;;72.47;20.23;;;7.70;53.30;;;;;;4385261;28;660579;-76
2022/01/11 09:43:49;;;;;;;21.00;10.70;;;7.30;53.70;;;;;;4386634;28;660510;-76
2022/01/11 09:46:37;;;;;;;32.40;13.57;;;6.90;54.10;;;;;;4392058;28;660911;-76
2022/01/11 09:49:25;;;;;;;19.77;9.90;;;6.60;54.10;;;;;;4409681;28;660401;-75
2022/01/11 09:52:13;;;;;;;21.27;9.13;;;5.80;54.40;;;;;;4386841;28;659537;-75
2022/01/11 09:55:00;;;;;;;20.27;11.80;;;5.10;55.60;;;;;;4410124;28;659373;-75
2022/01/11 09:57:50;;;;;;;23.03;11.70;;;4.10;56.80;;;;;;4377391;28;659472;-76
2022/01/11 10:00:38;;;;;;;25.83;12.67;;;3.60;59.10;;;;;;4383249;28;660056;-75
2022/01/11 10:03:26;;;;;;;34.57;16.90;;;3.10;60.70;;;;;;4407749;28;660700;-75
2022/01/11 10:06:18;;;;;;;22.43;11.13;;;2.70;62.90;;;;;;4379820;28;659938;-76
2022/01/11 10:09:16;;;;;;;20.80;11.40;;;2.40;64.80;;;;;;4374729;28;660447;-75
2022/01/11 10:12:04;;;;;;;24.03;11.93;;;1.90;67.20;;;;;;4348155;28;660523;-75
2022/01/11 10:14:54;;;;;;;29.67;13.30;;;1.80;69.80;;;;;;4385279;28;660142;-75
2022/01/11 10:17:43;;;;;;;27.13;11.47;;;1.80;72.40;;;;;;4397109;28;659878;-76
2022/01/11 10:20:31;;;;;;;19.57;9.60;;;1.70;73.80;;;;;;4409990;28;660310;-75
2022/01/11 10:23:19;;;;;;;19.47;9.10;;;1.70;75.00;;;;;;4385503;28;658788;-75
2022/01/11 10:26:06;;;;;;;22.27;11.33;;;1.50;74.20;;;;;;4408290;28;658136;-75
2022/01/11 10:28:55;;;;;;;23.90;11.23;;;1.40;75.60;;;;;;4344579;28;660695;-75
2022/01/11 10:31:45;;;;;;;22.17;9.83;;;1.40;78.20;;;;;;4378792;28;659616;-76
2022/01/11 10:34:34;;;;;;;21.27;9.43;;;1.20;80.20;;;;;;4371946;28;658431;-75
2022/01/11 10:37:29;;;;;;;21.93;8.57;;;1.30;85.10;;;;;;4399780;28;658728;-75
2022/01/11 10:40:18;;;;;;;18.03;8.63;;;1.60;87.20;;;;;;4375907;28;658965;-76
2022/01/11 10:43:07;;;;;;;17.20;8.93;;;2.00;83.70;;;;;;4405326;28;659142;-76
2022/01/11 10:45:58;;;;;;;20.47;9.27;;;2.90;90.50;;;;;;4388700;28;659454;-76
2022/01/11 10:48:47;;;;;;;19.80;10.03;;;4.00;73.30;;;;;;4389111;28;659292;-76
2022/01/11 10:51:35;;;;;;;20.50;9.60;;;5.30;67.40;;;;;;4384693;28;660477;-77
2022/01/11 10:54:25;;;;;;;24.23;11.67;;;6.30;61.60;;;;;;4387837;28;658837;-76
2022/01/11 10:57:22;;;;;;;26.70;12.50;;;7.60;57.70;;;;;;4383083;28;659735;-77
2022/01/11 11:00:19;;;;;;;21.20;10.37;;;8.30;53.50;;;;;;4360821;28;660682;-77
2022/01/11 11:03:09;;;;;;;24.53;12.37;;;9.10;51.50;;;;;;4386245;28;659982;-76
2022/01/11 11:05:58;;;;;;;18.30;10.83;;;9.90;50.90;;;;;;4385764;28;660359;-76
2022/01/11 11:08:47;;;;;;;21.43;11.30;;;10.90;48.00;;;;;;4390823;28;659955;-77
2022/01/11 11:11:37;;;;;;;13.47;8.77;;;11.90;45.50;;;;;;4384826;28;661565;-76
2022/01/11 11:14:39;;;;;;;16.83;10.83;;;12.70;43.20;;;;;;4389293;28;661034;-77
2022/01/11 11:17:28;;;;;;;33.07;16.83;;;13.30;42.00;;;;;;4378397;28;660830;-76
2022/01/11 11:20:16;;;;;;;21.97;12.37;;;13.80;38.40;;;;;;4392213;28;660592;-76
2022/01/11 11:23:06;;;;;;;20.23;12.67;;;14.20;39.50;;;;;;4389785;28;660873;-76
2022/01/11 11:25:53;;;;;;;22.40;11.73;;;13.70;37.90;;;;;;4386848;28;660765;-76
2022/01/11 11:28:41;;;;;;;22.17;11.90;;;13.70;37.90;;;;;;4404439;28;660980;-76
2022/01/11 11:31:29;;;;;;;18.87;10.93;;;13.00;37.00;;;;;;4382379;28;660740;-76
2022/01/11 11:34:17;;;;;;;24.53;12.30;;;13.50;37.80;;;;;;4394975;28;660825;-76
2022/01/11 11:37:06;;;;;;;104.07;33.37;;;14.30;38.70;;;;;;4412329;28;661166;-76
2022/01/11 11:39:57;;;;;;;37.10;16.63;;;14.20;36.60;;;;;;4379684;28;662519;-76
2022/01/11 11:42:45;;;;;;;20.43;11.67;;;14.40;36.20;;;;;;4385111;28;660901;-76
2022/01/11 11:45:34;;;;;;;18.50;11.13;;;14.20;36.50;;;;;;4372193;28;660627;-77
2022/01/11 11:48:23;;;;;;;15.13;10.50;;;13.90;35.80;;;;;;4395100;28;663474;-76
2022/01/11 11:51:14;;;;;;;19.30;11.20;;;13.40;36.70;;;;;;4374339;28;661215;-76
2022/01/11 11:54:10;;;;;;;18.50;10.50;;;13.10;36.50;;;;;;4365470;28;660960;-76
2022/01/11 11:57:02;;;;;;;20.57;11.10;;;12.10;36.70;;;;;;4367882;28;661073;-76
2022/01/11 11:59:54;;;;;;;19.47;11.50;;;11.10;38.60;;;;;;4370523;28;661053;-76
2022/01/11 12:02:43;;;;;;;20.92;12.18;;;10.80;40.50;;;;;;4364271;28;660825;-76
2022/01/11 12:05:33;;;;;;;21.10;11.77;;;10.60;40.40;;;;;;4391622;28;661085;-76
2022/01/11 12:08:43;;;;;;;19.43;11.20;;;9.90;41.70;;;;;;4369992;28;660833;-75
2022/01/11 12:11:35;;;;;;;19.70;10.90;;;9.60;43.20;;;;;;4354965;28;659893;-75
2022/01/11 12:14:31;;;;;;;24.37;12.33;;;9.40;43.90;;;;;;4348929;28;660388;-75
2022/01/11 12:17:24;;;;;;;25.33;12.30;;;9.20;44.60;;;;;;4350410;28;660645;-75
2022/01/11 12:20:11;;;;;;;19.90;10.97;;;9.00;43.50;;;;;;4375656;28;659425;-75
2022/01/11 12:22:59;;;;;;;22.63;11.93;;;9.40;45.70;;;;;;4370088;28;659831;-75
2022/01/11 12:25:47;;;;;;;29.70;14.97;;;9.60;43.80;;;;;;4393838;28;660008;-75
2022/01/11 12:28:35;;;;;;;22.83;12.30;;;10.00;43.20;;;;;;4371743;28;660458;-75
2022/01/11 12:31:26;;;;;;;22.63;11.57;;;10.90;42.00;;;;;;4373201;28;660743;-77
2022/01/11 12:34:14;;;;;;;20.27;10.97;;;11.80;40.80;;;;;;4368784;28;661457;-76
2022/01/11 12:37:03;;;;;;;30.23;14.57;;;12.70;39.00;;;;;;4385156;28;660635;-77
2022/01/11 12:40:12;;;;;;;27.63;14.67;;;13.40;38.00;;;;;;4398413;28;661070;-75
2022/01/11 12:43:04;;;;;;;20.73;11.87;;;13.20;36.90;;;;;;4351726;28;660906;-75
2022/01/11 12:46:06;;;;;;;31.23;18.50;;;11.80;37.40;;;;;;4376351;28;662716;-75
2022/01/11 12:49:01;;;;;;;25.13;14.00;;;10.40;38.70;;;;;;4363041;28;660813;-76
2022/01/11 12:52:09;;;;;;;25.57;13.53;;;9.60;41.50;;;;;;4364657;28;660665;-75
2022/01/11 12:54:59;;;;;;;24.83;12.00;;;8.50;43.70;;;;;;4350092;28;659642;-75
2022/01/11 12:57:46;;;;;;;23.00;11.17;;;7.50;44.30;;;;;;4373223;28;659362;-75
2022/01/11 13:00:35;;;;;;;22.80;9.87;;;6.80;46.00;;;;;;4338940;28;661934;-75
2022/01/11 13:03:22;;;;;;;20.77;10.40;;;6.60;47.30;;;;;;4358697;28;658723;-75
2022/01/11 13:06:11;;;;;;;21.83;10.73;;;7.60;47.30;;;;;;4400894;28;660501;-76
2022/01/11 13:08:59;;;;;;;19.20;10.37;;;9.00;46.50;;;;;;4368402;28;660934;-75
2022/01/11 13:11:48;;;;;;;25.50;12.10;;;9.80;43.30;;;;;;4399291;28;659673;-76
2022/01/11 13:14:40;;;;;;;28.03;12.63;;;9.30;42.60;;;;;;4400520;28;659748;-75
2022/01/11 13:17:28;;;;;;;20.65;10.82;;;8.60;43.80;;;;;;4374684;28;659852;-75
2022/01/11 13:20:16;;;;;;;25.90;12.75;;;7.40;44.60;;;;;;4393661;28;661258;-75
2022/01/11 13:23:14;;;;;;;20.50;10.10;;;7.00;46.20;;;;;;4370330;28;660245;-76
2022/01/11 13:26:03;;;;;;;22.77;10.60;;;7.50;46.70;;;;;;4350061;28;659550;-75
2022/01/11 13:28:52;;;;;;;29.50;14.70;;;8.70;46.30;;;;;;4377085;28;660100;-74
2022/01/11 13:31:40;;;;;;;34.80;15.87;;;9.70;44.00;;;;;;4374434;28;660471;-76
2022/01/11 13:34:28;;;;;;;30.97;15.20;;;10.20;42.10;;;;;;4372268;28;660060;-75
2022/01/11 13:37:16;;;;;;;28.37;13.77;;;10.80;41.40;;;;;;4390304;28;661563;-75
2022/01/11 13:40:09;;;;;;;27.83;13.70;;;10.70;40.40;;;;;;4365842;28;660891;-75
2022/01/11 13:43:01;;;;;;;28.47;14.03;;;10.80;41.30;;;;;;4359770;28;660614;-76
2022/01/11 13:45:48;;;;;;;26.53;13.93;;;11.30;40.70;;;;;;4375030;28;660858;-75
2022/01/11 13:48:38;;;;;;;26.10;12.83;;;11.50;39.50;;;;;;4420890;28;660706;-74
2022/01/11 13:51:26;;;;;;;30.63;14.80;;;11.40;39.30;;;;;;4368183;28;661559;-74
2022/01/11 13:54:14;;;;;;;28.90;13.23;;;11.40;39.60;;;;;;4387280;28;661817;-74
2022/01/11 13:57:05;;;;;;;30.87;14.03;;;11.90;39.10;;;;;;4397897;28;660964;-75
2022/01/11 13:59:57;;;;;;;24.87;12.70;;;11.80;39.20;;;;;;4395933;28;660732;-75
2022/01/11 14:02:45;;;;;;;32.27;13.40;;;11.60;38.70;;;;;;4393186;28;661658;-74
2022/01/11 14:05:34;;;;;;;28.27;12.60;;;10.20;39.10;;;;;;4372761;28;660844;-74
2022/01/11 14:08:29;;;;;;;34.43;14.57;;;8.70;41.90;;;;;;4402060;28;660712;-74
2022/01/11 14:11:27;;;;;;;30.43;14.17;;;7.50;44.20;;;;;;4404634;28;659666;-72
2022/01/11 14:14:16;;;;;;;33.23;14.47;;;6.30;46.30;;;;;;4371182;28;661034;-73
2022/01/11 14:17:14;;;;;;;33.67;14.80;;;5.30;48.60;;;;;;4389191;28;660063;-73